Time;durP1;ratioP1;P1;durP2;ratioP2;P2;SDS_P1;SDS_P2;PMS_P1;PMS_P2;Temp;Humidity;BMP_temperature;BMP_pressure;BME280_temperature;BME280_humidity;BME280_pressure;Samples;Min_cycle;Max_cycle;Signal;HPM_P1;HPM_P2
2021/01/26 00:00:26;;;;;;;27.58;18.00;;;-1.40;98.00;;;;;;5023594;28;20061;-68
2021/01/26 00:02:52;;;;;;;26.67;16.90;;;-1.40;98.00;;;;;;5023156;28;20037;-68
2021/01/26 00:05:18;;;;;;;26.90;17.63;;;-1.40;98.00;;;;;;5020829;28;20018;-68
2021/01/26 00:07:44;;;;;;;28.25;18.95;;;-1.40;98.00;;;;;;5022634;28;20622;-68
2021/01/26 00:10:11;;;;;;;26.65;19.05;;;-1.40;98.00;;;;;;5021612;28;20371;-68
2021/01/26 00:12:38;;;;;;;26.25;17.92;;;-1.40;98.00;;;;;;5023462;28;20029;-68
2021/01/26 00:15:06;;;;;;;23.75;16.92;;;-1.40;98.00;;;;;;5020997;28;20088;-69
2021/01/26 00:17:32;;;;;;;22.50;17.00;;;-1.40;98.00;;;;;;5024104;28;20025;-68
2021/01/26 00:19:58;;;;;;;22.85;16.15;;;-1.40;98.00;;;;;;5033569;28;20025;-68
2021/01/26 00:22:23;;;;;;;25.77;17.15;;;-1.40;98.00;;;;;;5024576;28;20079;-69
2021/01/26 00:24:49;;;;;;;24.45;16.40;;;-1.40;98.00;;;;;;5035765;28;20028;-67
2021/01/26 00:27:15;;;;;;;23.13;16.15;;;-1.50;98.00;;;;;;5034891;28;20025;-68
2021/01/26 00:29:41;;;;;;;23.88;16.20;;;-1.60;98.00;;;;;;5030137;28;20321;-67
2021/01/26 00:32:07;;;;;;;22.25;14.93;;;-1.70;98.00;;;;;;5031410;28;20094;-69
2021/01/26 00:34:33;;;;;;;19.67;14.73;;;-1.90;98.00;;;;;;5024190;28;20478;-67
2021/01/26 00:36:58;;;;;;;23.13;14.68;;;-2.00;98.00;;;;;;5026623;28;20418;-69
2021/01/26 00:39:24;;;;;;;20.88;13.98;;;-2.10;98.00;;;;;;5032331;28;20046;-70
2021/01/26 00:41:52;;;;;;;23.50;15.10;;;-2.30;98.00;;;;;;5032540;28;20036;-69
2021/01/26 00:44:18;;;;;;;21.05;14.50;;;-2.40;98.00;;;;;;5022766;28;20407;-69
2021/01/26 00:46:44;;;;;;;26.17;13.15;;;-2.50;98.00;;;;;;5024548;28;20041;-70
2021/01/26 00:49:09;;;;;;;18.80;12.85;;;-2.50;98.00;;;;;;5030442;28;20028;-69
2021/01/26 00:51:35;;;;;;;20.33;14.40;;;-2.60;98.00;;;;;;5030688;28;20414;-69
2021/01/26 00:54:00;;;;;;;20.83;13.52;;;-2.60;98.00;;;;;;5030900;28;20030;-69
2021/01/26 00:56:29;;;;;;;23.38;15.75;;;-2.60;98.00;;;;;;5033256;28;20037;-68
2021/01/26 00:58:55;;;;;;;20.88;12.88;;;-2.70;98.00;;;;;;5033920;28;20422;-68
2021/01/26 01:01:24;;;;;;;20.35;12.93;;;-2.70;98.00;;;;;;5028940;28;20033;-69
2021/01/26 01:03:50;;;;;;;19.63;12.52;;;-2.70;98.00;;;;;;5023906;28;20055;-69
2021/01/26 01:06:16;;;;;;;18.92;12.80;;;-2.70;98.00;;;;;;5034726;28;20029;-68
2021/01/26 01:08:42;;;;;;;17.00;11.80;;;-2.70;98.00;;;;;;5034578;28;20420;-69
2021/01/26 01:11:08;;;;;;;22.75;11.93;;;-2.80;98.00;;;;;;5034958;28;20036;-68
2021/01/26 01:13:33;;;;;;;18.92;13.18;;;-2.80;98.00;;;;;;5034945;28;20087;-68
2021/01/26 01:15:59;;;;;;;16.38;12.63;;;-2.70;98.00;;;;;;5035562;28;20036;-69
2021/01/26 01:18:25;;;;;;;16.35;11.52;;;-2.70;98.00;;;;;;5037125;28;20080;-68
2021/01/26 01:20:50;;;;;;;16.77;11.90;;;-2.80;98.00;;;;;;5029767;28;20026;-68
2021/01/26 01:23:16;;;;;;;19.17;13.20;;;-2.80;98.00;;;;;;5018218;28;20112;-68
2021/01/26 01:25:42;;;;;;;18.48;12.95;;;-2.80;98.00;;;;;;5035226;28;20065;-68
2021/01/26 01:28:07;;;;;;;20.70;13.32;;;-2.80;98.00;;;;;;5032044;28;20141;-68
2021/01/26 01:30:34;;;;;;;17.08;11.68;;;-2.80;98.00;;;;;;5030159;28;20410;-68
2021/01/26 01:33:02;;;;;;;17.60;11.70;;;-2.80;98.00;;;;;;5036883;28;20052;-68
2021/01/26 01:35:27;;;;;;;17.77;11.82;;;-2.70;98.00;;;;;;5023760;28;20018;-69
2021/01/26 01:37:53;;;;;;;16.90;11.32;;;-2.70;98.00;;;;;;5025451;28;20082;-68
2021/01/26 01:40:26;;;;;;;13.55;10.15;;;-2.80;98.00;;;;;;5036495;28;20049;-69
2021/01/26 01:42:53;;;;;;;16.23;10.88;;;-2.80;98.00;;;;;;5042678;28;20414;-68
2021/01/26 01:45:21;;;;;;;13.52;9.38;;;-2.80;98.00;;;;;;5027286;28;20040;-69
2021/01/26 01:47:53;;;;;;;15.90;10.63;;;-2.90;98.00;;;;;;5029515;28;20045;-68
2021/01/26 01:50:25;;;;;;;17.10;10.77;;;-3.00;98.00;;;;;;5034984;28;20021;-68
2021/01/26 01:53:05;;;;;;;14.45;9.30;;;-2.90;98.00;;;;;;5043069;28;20033;-69
2021/01/26 01:55:36;;;;;;;14.35;9.95;;;-2.80;98.00;;;;;;5033048;28;20385;-68
2021/01/26 01:58:11;;;;;;;13.15;9.65;;;-2.70;98.00;;;;;;5033472;28;20124;-68
2021/01/26 02:00:37;;;;;;;15.15;10.05;;;-2.60;98.00;;;;;;5033003;28;20036;-69
2021/01/26 02:03:19;;;;;;;15.45;9.45;;;-2.60;98.00;;;;;;5035564;28;20021;-69
2021/01/26 02:05:44;;;;;;;15.30;9.50;;;-2.50;98.00;;;;;;5032537;28;20036;-68
2021/01/26 02:08:19;;;;;;;13.43;9.73;;;-2.40;98.00;;;;;;5020101;28;20026;-68
2021/01/26 02:10:51;;;;;;;16.83;10.20;;;-2.40;98.00;;;;;;5026990;28;20423;-68
2021/01/26 02:13:18;;;;;;;14.25;9.85;;;-2.40;98.00;;;;;;5034743;28;20033;-69
2021/01/26 02:15:46;;;;;;;13.63;10.20;;;-2.40;98.00;;;;;;5026942;28;20324;-69
2021/01/26 02:18:43;;;;;;;15.40;10.73;;;-2.40;98.00;;;;;;5020583;28;20435;-69
2021/01/26 02:21:44;;;;;;;17.05;10.88;;;-2.30;98.00;;;;;;5037299;28;20033;-69
2021/01/26 02:24:27;;;;;;;14.00;9.55;;;-2.30;98.00;;;;;;5025710;28;20066;-68
2021/01/26 02:27:25;;;;;;;12.50;8.37;;;-2.30;98.00;;;;;;5023612;28;20312;-68
2021/01/26 02:30:09;;;;;;;12.88;8.77;;;-2.20;98.00;;;;;;5015590;28;20156;-68
2021/01/26 02:32:44;;;;;;;14.98;9.10;;;-2.20;98.00;;;;;;5029716;28;20025;-68
2021/01/26 02:35:30;;;;;;;12.07;8.65;;;-2.20;98.00;;;;;;5034342;28;20237;-69
2021/01/26 02:37:56;;;;;;;13.40;8.55;;;-2.20;98.00;;;;;;5024302;28;20026;-69
2021/01/26 02:40:30;;;;;;;12.07;8.73;;;-2.20;98.00;;;;;;5021983;28;20470;-68
2021/01/26 02:43:05;;;;;;;12.00;8.27;;;-2.20;98.00;;;;;;5028680;28;20026;-68
2021/01/26 02:45:45;;;;;;;12.52;8.25;;;-2.20;98.00;;;;;;5034899;28;20484;-67
2021/01/26 02:48:27;;;;;;;12.15;8.30;;;-2.20;98.00;;;;;;5024562;28;20040;-69
2021/01/26 02:51:06;;;;;;;10.77;7.80;;;-2.20;98.00;;;;;;5035606;28;20410;-67
2021/01/26 02:53:56;;;;;;;11.27;7.45;;;-2.20;98.00;;;;;;5031763;28;20033;-67
2021/01/26 02:56:35;;;;;;;12.05;7.82;;;-2.30;98.00;;;;;;5041619;28;21379;-67
2021/01/26 02:59:10;;;;;;;13.85;8.48;;;-2.20;98.00;;;;;;5034100;28;20029;-68
2021/01/26 03:01:41;;;;;;;16.08;7.63;;;-2.20;98.00;;;;;;5030209;28;20037;-69
2021/01/26 03:04:16;;;;;;;14.35;8.85;;;-2.20;98.00;;;;;;5035400;28;20423;-69
2021/01/26 03:06:48;;;;;;;12.93;8.57;;;-2.20;98.00;;;;;;5033397;28;20080;-69
2021/01/26 03:09:25;;;;;;;12.30;8.23;;;-2.10;98.00;;;;;;5026298;28;20033;-70
2021/01/26 03:12:03;;;;;;;13.65;9.10;;;-2.10;98.00;;;;;;5032677;28;20029;-69
2021/01/26 03:14:44;;;;;;;11.55;8.35;;;-2.10;98.00;;;;;;5028661;28;20072;-69
2021/01/26 03:17:34;;;;;;;13.82;8.05;;;-2.10;98.00;;;;;;5030493;28;20025;-69
2021/01/26 03:20:08;;;;;;;12.38;8.40;;;-2.00;98.00;;;;;;5032080;28;20021;-69
2021/01/26 03:22:36;;;;;;;16.10;8.05;;;-2.00;98.00;;;;;;5031546;28;20372;-68
2021/01/26 03:25:06;;;;;;;12.50;8.10;;;-2.00;98.00;;;;;;5027762;28;20101;-69
2021/01/26 03:27:36;;;;;;;13.27;8.70;;;-2.00;98.00;;;;;;5017995;28;20040;-68
2021/01/26 03:30:07;;;;;;;10.98;8.23;;;-2.00;98.00;;;;;;5029329;28;20032;-69
2021/01/26 03:32:42;;;;;;;16.33;9.50;;;-2.00;98.00;;;;;;5021885;28;20540;-68
2021/01/26 03:35:09;;;;;;;12.80;8.77;;;-2.00;98.00;;;;;;5041295;28;20040;-67
2021/01/26 03:37:38;;;;;;;12.30;9.02;;;-2.00;98.00;;;;;;5039476;28;20022;-69
2021/01/26 03:40:06;;;;;;;16.00;9.65;;;-2.00;98.00;;;;;;5032376;28;20045;-67
2021/01/26 03:42:33;;;;;;;15.68;9.52;;;-2.10;98.00;;;;;;5025223;28;20026;-68
2021/01/26 03:44:59;;;;;;;15.73;9.50;;;-2.10;98.00;;;;;;5033707;28;20438;-69
2021/01/26 03:47:26;;;;;;;17.33;9.27;;;-2.10;98.00;;;;;;5028953;28;20021;-69
2021/01/26 03:50:04;;;;;;;13.60;9.57;;;-2.10;98.00;;;;;;5029356;28;20030;-67
2021/01/26 03:52:35;;;;;;;15.73;9.85;;;-2.20;98.00;;;;;;5032474;28;20029;-69
2021/01/26 03:55:26;;;;;;;15.00;9.15;;;-2.20;98.00;;;;;;5023552;28;20017;-68
2021/01/26 03:58:13;;;;;;;14.27;9.00;;;-2.10;98.00;;;;;;5022069;28;20033;-68
2021/01/26 04:00:46;;;;;;;13.10;8.32;;;-2.10;98.00;;;;;;5032131;28;20053;-69
2021/01/26 04:03:57;;;;;;;13.48;8.32;;;-2.10;98.00;;;;;;5041158;28;20079;-69
2021/01/26 04:06:32;;;;;;;15.00;8.25;;;-2.10;98.00;;;;;;4997740;28;20048;-68
2021/01/26 04:09:07;;;;;;;10.43;7.65;;;-2.00;98.00;;;;;;5005461;28;20110;-68
2021/01/26 04:11:52;;;;;;;14.05;9.32;;;-1.90;98.00;;;;;;5021002;28;20033;-68
2021/01/26 04:14:32;;;;;;;13.88;8.93;;;-1.90;98.00;;;;;;5033384;28;20021;-68
2021/01/26 04:17:21;;;;;;;12.68;8.57;;;-1.90;98.00;;;;;;5033595;28;20053;-67
2021/01/26 04:20:06;;;;;;;24.77;8.35;;;-1.90;98.00;;;;;;5019105;28;20022;-69
2021/01/26 04:22:33;;;;;;;15.32;8.82;;;-1.90;98.00;;;;;;5032491;28;20037;-67
2021/01/26 04:24:58;;;;;;;14.63;8.38;;;-1.80;98.00;;;;;;5031508;28;20038;-69
2021/01/26 04:27:25;;;;;;;15.82;9.82;;;-1.80;98.00;;;;;;5027798;28;20318;-67
2021/01/26 04:29:52;;;;;;;12.05;7.68;;;-1.90;98.00;;;;;;5038024;28;20021;-68
2021/01/26 04:32:20;;;;;;;12.77;8.27;;;-1.90;98.00;;;;;;5022715;28;20049;-68
2021/01/26 04:34:45;;;;;;;17.75;9.82;;;-1.90;98.00;;;;;;5024708;28;20025;-67
2021/01/26 04:37:12;;;;;;;16.05;9.50;;;-1.90;98.00;;;;;;5034064;28;20513;-68
2021/01/26 04:39:37;;;;;;;14.32;8.68;;;-1.90;98.00;;;;;;5036269;28;20065;-67
2021/01/26 04:42:14;;;;;;;22.85;10.75;;;-1.90;98.00;;;;;;5046115;28;20036;-68
2021/01/26 04:45:09;;;;;;;16.83;9.57;;;-1.90;98.00;;;;;;5048578;28;20322;-67
2021/01/26 04:47:50;;;;;;;15.13;8.82;;;-1.90;98.00;;;;;;5018777;28;20026;-67
2021/01/26 04:50:29;;;;;;;12.27;7.70;;;-1.80;98.00;;;;;;5037282;28;20111;-67
2021/01/26 04:53:17;;;;;;;15.05;9.45;;;-1.90;98.00;;;;;;5034786;28;20030;-67
2021/01/26 04:56:07;;;;;;;18.45;7.95;;;-1.80;98.00;;;;;;5025616;28;20022;-69
2021/01/26 04:58:46;;;;;;;13.73;8.18;;;-1.80;98.00;;;;;;5031431;28;20026;-68
2021/01/26 05:01:37;;;;;;;13.57;8.00;;;-1.80;98.00;;;;;;5022115;28;20453;-68
2021/01/26 05:04:05;;;;;;;12.32;8.15;;;-1.80;98.00;;;;;;5039696;28;20029;-69
2021/01/26 05:07:05;;;;;;;13.75;7.45;;;-1.80;98.00;;;;;;5040102;28;20099;-68
2021/01/26 05:09:42;;;;;;;13.50;7.25;;;-1.80;98.00;;;;;;5029234;28;20041;-68
2021/01/26 05:12:11;;;;;;;10.38;7.20;;;-1.80;98.00;;;;;;5031219;28;20449;-67
2021/01/26 05:14:42;;;;;;;12.23;6.90;;;-1.80;98.00;;;;;;5024343;28;20022;-67
2021/01/26 05:17:17;;;;;;;9.40;6.15;;;-1.80;98.00;;;;;;5028723;28;20032;-69
2021/01/26 05:19:53;;;;;;;13.25;7.13;;;-1.80;98.00;;;;;;5037514;28;20032;-67
2021/01/26 05:22:57;;;;;;;13.73;7.75;;;-1.80;98.00;;;;;;5032059;28;20478;-67
2021/01/26 05:25:24;;;;;;;11.95;7.53;;;-1.80;98.00;;;;;;5032432;28;20026;-67
2021/01/26 05:27:51;;;;;;;11.07;7.20;;;-1.80;98.00;;;;;;5031351;28;20030;-67
2021/01/26 05:30:26;;;;;;;12.65;7.75;;;-1.80;98.00;;;;;;5036447;28;20072;-68
2021/01/26 05:32:53;;;;;;;15.25;8.15;;;-1.80;98.00;;;;;;5036552;28;20029;-67
2021/01/26 05:35:20;;;;;;;14.73;8.95;;;-1.90;98.00;;;;;;5034731;28;20034;-69
2021/01/26 05:37:52;;;;;;;9.80;7.05;;;-1.90;98.00;;;;;;5032298;28;20025;-67
2021/01/26 05:40:28;;;;;;;11.20;7.70;;;-1.90;98.00;;;;;;5024640;28;20351;-67
2021/01/26 05:42:58;;;;;;;13.30;8.40;;;-1.90;98.00;;;;;;5035809;28;20039;-68
2021/01/26 05:45:30;;;;;;;13.10;7.93;;;-1.90;98.00;;;;;;5036231;28;20075;-69
2021/01/26 05:48:06;;;;;;;13.25;8.45;;;-1.90;98.00;;;;;;5028280;28;20034;-68
2021/01/26 05:50:35;;;;;;;10.60;7.07;;;-1.90;98.00;;;;;;5028723;28;20041;-68
2021/01/26 05:53:04;;;;;;;9.52;6.20;;;-1.90;98.00;;;;;;5033843;28;20441;-68
2021/01/26 05:55:33;;;;;;;10.77;7.20;;;-1.90;98.00;;;;;;5041664;28;20068;-69
2021/01/26 05:58:10;;;;;;;12.77;7.35;;;-1.80;98.00;;;;;;5025337;28;20026;-70
2021/01/26 06:00:37;;;;;;;11.82;6.97;;;-1.70;98.00;;;;;;5036010;28;20116;-69
2021/01/26 06:03:17;;;;;;;11.00;5.80;;;-1.70;98.00;;;;;;5024397;28;20434;-69
2021/01/26 06:06:00;;;;;;;9.05;5.88;;;-1.70;98.00;;;;;;5028664;28;20037;-69
2021/01/26 06:08:26;;;;;;;9.50;5.65;;;-1.70;98.00;;;;;;5033055;28;20393;-69
2021/01/26 06:10:53;;;;;;;9.05;5.80;;;-1.60;98.00;;;;;;5034037;28;20446;-69
2021/01/26 06:13:30;;;;;;;16.55;6.32;;;-1.60;98.00;;;;;;5035395;28;20466;-69
2021/01/26 06:16:15;;;;;;;14.68;6.50;;;-1.60;98.00;;;;;;5029835;28;20113;-69
2021/01/26 06:18:56;;;;;;;9.70;5.35;;;-1.60;98.00;;;;;;5035154;28;20481;-68
2021/01/26 06:21:22;;;;;;;10.23;5.68;;;-1.60;98.00;;;;;;5034253;28;20080;-69
2021/01/26 06:23:51;;;;;;;7.72;5.00;;;-1.60;98.00;;;;;;5029085;28;20057;-69
2021/01/26 06:26:17;;;;;;;8.88;5.30;;;-1.60;98.00;;;;;;5032366;28;20093;-68
2021/01/26 06:29:05;;;;;;;8.43;6.05;;;-1.50;98.00;;;;;;5027818;28;20180;-67
2021/01/26 06:31:59;;;;;;;6.63;4.70;;;-1.60;98.00;;;;;;5030244;28;20048;-67
2021/01/26 06:34:54;;;;;;;11.57;6.25;;;-1.60;98.00;;;;;;5028319;28;20025;-67
2021/01/26 06:37:47;;;;;;;9.18;5.78;;;-1.60;98.00;;;;;;5028675;28;20034;-69
2021/01/26 06:40:27;;;;;;;8.35;5.43;;;-1.60;98.00;;;;;;5033491;28;20491;-67
2021/01/26 06:43:15;;;;;;;10.27;5.88;;;-1.60;98.00;;;;;;5031774;28;20065;-68
2021/01/26 06:45:56;;;;;;;8.85;5.30;;;-1.60;98.00;;;;;;5033401;28;20118;-68
2021/01/26 06:48:39;;;;;;;12.05;5.63;;;-1.60;98.00;;;;;;5037392;28;20037;-68
2021/01/26 06:51:41;;;;;;;10.73;5.65;;;-1.60;98.00;;;;;;5031699;28;20017;-68
2021/01/26 06:54:26;;;;;;;12.07;5.60;;;-1.50;98.00;;;;;;5029529;28;20065;-68
2021/01/26 06:57:33;;;;;;;9.40;5.50;;;-1.60;98.00;;;;;;5029732;28;20102;-69
2021/01/26 07:00:09;;;;;;;8.73;5.40;;;-1.50;98.00;;;;;;5036493;28;20025;-68
2021/01/26 07:02:55;;;;;;;11.77;5.90;;;-1.60;98.00;;;;;;5032482;28;20044;-69
2021/01/26 07:05:56;;;;;;;13.80;5.65;;;-1.60;98.00;;;;;;5034999;28;20040;-68
2021/01/26 07:09:07;;;;;;;6.75;4.93;;;-1.60;98.00;;;;;;5030644;28;20044;-68
2021/01/26 07:11:44;;;;;;;10.52;4.95;;;-1.60;98.00;;;;;;5029381;28;20115;-69
2021/01/26 07:14:31;;;;;;;6.85;4.50;;;-1.60;98.00;;;;;;5037585;28;20029;-69
2021/01/26 07:17:05;;;;;;;8.77;4.70;;;-1.60;97.80;;;;;;5031199;28;20030;-69
2021/01/26 07:19:44;;;;;;;8.27;4.78;;;-1.50;97.50;;;;;;5051836;28;20040;-67
2021/01/26 07:22:19;;;;;;;8.10;5.10;;;-1.50;97.50;;;;;;5033142;28;20053;-68
2021/01/26 07:25:07;;;;;;;9.02;5.55;;;-1.50;97.30;;;;;;5036651;28;20057;-66
2021/01/26 07:27:47;;;;;;;8.63;4.97;;;-1.50;97.30;;;;;;5034277;28;20036;-67
2021/01/26 07:30:18;;;;;;;7.32;3.92;;;-1.40;97.70;;;;;;5034178;28;20029;-67
2021/01/26 07:33:02;;;;;;;5.90;4.15;;;-1.40;97.00;;;;;;5035616;28;20064;-68
2021/01/26 07:35:37;;;;;;;6.35;4.45;;;-1.40;97.00;;;;;;5029635;28;20033;-67
2021/01/26 07:38:29;;;;;;;5.97;4.07;;;-1.30;97.10;;;;;;5032241;28;20033;-68
2021/01/26 07:41:37;;;;;;;8.65;4.28;;;-1.30;97.10;;;;;;5026481;28;20103;-67
2021/01/26 07:44:22;;;;;;;5.88;3.70;;;-1.30;96.90;;;;;;5013323;28;20953;-67
2021/01/26 07:47:09;;;;;;;16.83;4.10;;;-1.20;96.80;;;;;;5018550;28;20029;-68
2021/01/26 07:49:48;;;;;;;9.38;4.70;;;-1.20;96.70;;;;;;5033866;28;20033;-67
2021/01/26 07:52:16;;;;;;;6.20;3.67;;;-1.20;96.70;;;;;;5028514;28;20343;-67
2021/01/26 07:54:53;;;;;;;15.95;4.80;;;-1.10;96.70;;;;;;5028423;28;20037;-67
2021/01/26 07:57:23;;;;;;;6.70;4.03;;;-1.10;96.70;;;;;;5015593;28;20311;-67
2021/01/26 07:59:56;;;;;;;7.07;4.30;;;-1.00;96.20;;;;;;5021633;28;20101;-68
2021/01/26 08:02:31;;;;;;;7.00;3.88;;;-0.90;96.00;;;;;;5015891;28;20041;-68
2021/01/26 08:04:57;;;;;;;7.30;3.40;;;-0.90;95.90;;;;;;5022330;28;20017;-68
2021/01/26 08:07:27;;;;;;;4.90;3.10;;;-0.80;95.10;;;;;;5023095;28;20030;-68
2021/01/26 08:09:54;;;;;;;10.95;3.55;;;-0.80;94.90;;;;;;5022295;28;20022;-67
2021/01/26 08:12:30;;;;;;;8.70;3.85;;;-0.70;95.20;;;;;;5034091;28;20033;-67
2021/01/26 08:15:20;;;;;;;5.28;3.13;;;-0.60;94.60;;;;;;5032958;28;20025;-67
2021/01/26 08:17:47;;;;;;;7.43;3.80;;;-0.70;94.80;;;;;;5035299;28;20028;-67
2021/01/26 08:20:20;;;;;;;7.22;4.35;;;-0.70;95.10;;;;;;5015582;28;20084;-68
2021/01/26 08:22:54;;;;;;;6.85;3.75;;;-0.70;95.20;;;;;;5033474;28;20113;-68
2021/01/26 08:25:41;;;;;;;6.57;3.50;;;-0.70;95.70;;;;;;5020811;28;20108;-68
2021/01/26 08:28:31;;;;;;;7.93;4.05;;;-0.70;95.50;;;;;;5034027;28;20314;-69
2021/01/26 08:30:59;;;;;;;7.85;4.07;;;-0.60;95.30;;;;;;5016389;28;20030;-69
2021/01/26 08:33:30;;;;;;;6.60;3.80;;;-0.60;95.10;;;;;;5017894;28;20063;-69
2021/01/26 08:36:10;;;;;;;7.82;3.72;;;-0.60;94.50;;;;;;5035291;28;20104;-66
2021/01/26 08:38:58;;;;;;;6.40;3.85;;;-0.70;94.70;;;;;;5032477;28;20030;-67
2021/01/26 08:41:44;;;;;;;7.15;3.72;;;-0.70;95.10;;;;;;5035369;28;20120;-68
2021/01/26 08:44:35;;;;;;;7.78;3.70;;;-0.70;94.80;;;;;;5037666;28;20123;-67
2021/01/26 08:47:39;;;;;;;6.43;3.78;;;-0.70;94.80;;;;;;5032580;28;20029;-68
2021/01/26 08:50:11;;;;;;;8.57;3.85;;;-0.70;94.80;;;;;;5033336;28;20060;-68
2021/01/26 08:52:37;;;;;;;6.22;3.70;;;-0.70;94.80;;;;;;5054094;28;20028;-67
2021/01/26 08:55:05;;;;;;;9.20;3.95;;;-0.70;94.70;;;;;;5027434;28;20036;-67
2021/01/26 08:57:31;;;;;;;8.60;4.18;;;-0.70;94.90;;;;;;5038412;28;20108;-67
2021/01/26 09:00:19;;;;;;;7.57;4.05;;;-0.70;94.90;;;;;;5035250;28;20426;-68
2021/01/26 09:02:48;;;;;;;8.23;4.15;;;-0.70;94.80;;;;;;5038781;28;20041;-68
2021/01/26 09:05:39;;;;;;;6.93;3.70;;;-0.70;95.30;;;;;;5038778;28;20334;-68
2021/01/26 09:08:05;;;;;;;7.55;3.75;;;-0.70;95.30;;;;;;5028749;28;20021;-67
2021/01/26 09:10:31;;;;;;;8.57;4.72;;;-0.70;95.40;;;;;;5033298;28;20045;-68
2021/01/26 09:13:21;;;;;;;8.27;4.65;;;-0.70;95.80;;;;;;5033235;28;20048;-69
2021/01/26 09:15:53;;;;;;;8.68;4.82;;;-0.60;95.70;;;;;;5014989;28;20029;-68
2021/01/26 09:18:24;;;;;;;9.68;5.05;;;-0.60;95.50;;;;;;5032814;28;20441;-68
2021/01/26 09:20:58;;;;;;;12.48;6.75;;;-0.60;95.90;;;;;;5022020;28;20036;-69
2021/01/26 09:23:28;;;;;;;13.27;7.03;;;-0.60;95.80;;;;;;5028188;28;20314;-68
2021/01/26 09:25:53;;;;;;;8.95;5.47;;;-0.50;95.40;;;;;;5034303;28;20306;-68
2021/01/26 09:28:22;;;;;;;9.10;5.38;;;-0.50;95.60;;;;;;5026517;28;20032;-67
2021/01/26 09:30:58;;;;;;;7.25;4.15;;;-0.50;95.70;;;;;;5037618;28;20047;-68
2021/01/26 09:33:27;;;;;;;16.63;6.93;;;-0.50;95.90;;;;;;5036578;28;20129;-69
2021/01/26 09:36:01;;;;;;;10.52;5.28;;;-0.50;95.70;;;;;;5050421;28;20422;-69
2021/01/26 09:38:35;;;;;;;8.90;5.72;;;-0.60;96.00;;;;;;5031661;28;20444;-69
2021/01/26 09:41:06;;;;;;;10.88;5.45;;;-0.60;96.40;;;;;;5031764;28;20037;-69
2021/01/26 09:43:37;;;;;;;9.90;5.10;;;-0.60;96.90;;;;;;5029645;28;20104;-69
2021/01/26 09:46:11;;;;;;;11.52;6.10;;;-0.60;96.90;;;;;;5027700;28;20034;-69
2021/01/26 09:48:49;;;;;;;7.93;4.70;;;-0.60;96.70;;;;;;5027019;28;20021;-69
2021/01/26 09:51:17;;;;;;;13.35;5.57;;;-0.50;97.10;;;;;;5025128;28;20017;-68
2021/01/26 09:53:47;;;;;;;8.07;4.50;;;-0.40;97.00;;;;;;5034464;28;20304;-69
2021/01/26 09:56:27;;;;;;;8.30;5.07;;;-0.40;96.70;;;;;;5022454;28;20038;-68
2021/01/26 09:58:56;;;;;;;11.77;5.80;;;-0.40;97.00;;;;;;5027435;28;20109;-68
2021/01/26 10:01:23;;;;;;;11.70;5.88;;;-0.40;96.90;;;;;;5021453;28;20081;-69
2021/01/26 10:03:54;;;;;;;9.05;4.72;;;-0.30;96.70;;;;;;5033185;28;20382;-68
2021/01/26 10:06:21;;;;;;;9.30;4.75;;;-0.30;96.70;;;;;;5028044;28;20049;-69
2021/01/26 10:08:47;;;;;;;7.13;4.45;;;-0.20;96.90;;;;;;5023503;28;20026;-68
2021/01/26 10:11:17;;;;;;;10.10;6.00;;;-0.20;96.70;;;;;;5025616;28;20343;-68
2021/01/26 10:13:44;;;;;;;7.18;4.13;;;-0.20;96.80;;;;;;5034957;28;20039;-68
2021/01/26 10:16:31;;;;;;;9.82;5.57;;;-0.20;96.70;;;;;;5035861;28;20087;-68
2021/01/26 10:19:14;;;;;;;15.45;5.05;;;-0.30;97.10;;;;;;5037562;28;20032;-68
2021/01/26 10:22:21;;;;;;;10.75;5.88;;;-0.40;97.50;;;;;;5044278;28;20029;-68
2021/01/26 10:24:50;;;;;;;10.45;5.35;;;-0.30;97.40;;;;;;5026600;28;20049;-69
2021/01/26 10:27:23;;;;;;;10.10;5.32;;;-0.30;97.20;;;;;;5033310;28;20304;-70
2021/01/26 10:30:19;;;;;;;7.20;4.97;;;-0.20;97.10;;;;;;5036801;28;20124;-68
2021/01/26 10:32:50;;;;;;;8.18;4.43;;;-0.20;97.00;;;;;;5016000;28;20038;-68
2021/01/26 10:35:24;;;;;;;10.65;5.13;;;-0.20;96.80;;;;;;5031988;28;20116;-70
2021/01/26 10:37:50;;;;;;;16.48;5.63;;;-0.20;96.70;;;;;;5036817;28;20025;-69
2021/01/26 10:40:27;;;;;;;10.75;6.20;;;-0.10;96.40;;;;;;5030204;28;20049;-67
2021/01/26 10:43:03;;;;;;;10.40;5.47;;;0.00;96.70;;;;;;5028261;28;20037;-67
2021/01/26 10:45:35;;;;;;;7.45;4.80;;;0.10;95.80;;;;;;5035447;28;20053;-68
2021/01/26 10:48:24;;;;;;;10.77;4.63;;;0.10;95.60;;;;;;5036642;28;20025;-67
2021/01/26 10:50:51;;;;;;;9.73;4.97;;;0.20;95.50;;;;;;5017051;28;20056;-66
2021/01/26 10:53:53;;;;;;;11.35;5.20;;;0.30;95.10;;;;;;5029337;28;20034;-68
2021/01/26 10:56:19;;;;;;;10.07;4.45;;;0.30;95.00;;;;;;5034953;28;20046;-69
2021/01/26 10:58:47;;;;;;;10.02;5.03;;;0.40;94.60;;;;;;5036026;28;20034;-67
2021/01/26 11:01:20;;;;;;;10.00;5.05;;;0.40;94.70;;;;;;5034349;28;20037;-68
2021/01/26 11:03:47;;;;;;;7.75;4.57;;;0.60;94.00;;;;;;5035528;28;20422;-68
2021/01/26 11:06:13;;;;;;;6.70;4.57;;;0.60;93.50;;;;;;5035215;28;20036;-69
2021/01/26 11:08:39;;;;;;;10.23;4.78;;;0.60;93.80;;;;;;5032493;28;20021;-69
2021/01/26 11:11:04;;;;;;;7.85;4.68;;;0.50;93.80;;;;;;5034351;28;20423;-68
2021/01/26 11:13:30;;;;;;;13.82;6.15;;;0.50;93.90;;;;;;5051096;28;20120;-69
2021/01/26 11:15:56;;;;;;;10.60;6.93;;;0.60;93.50;;;;;;5035378;28;20415;-68
2021/01/26 11:18:22;;;;;;;10.80;5.80;;;0.80;93.30;;;;;;5035351;28;20044;-68
2021/01/26 11:20:48;;;;;;;8.30;4.18;;;1.10;92.90;;;;;;5036049;28;20033;-69
2021/01/26 11:23:14;;;;;;;14.30;6.88;;;1.20;91.40;;;;;;5031237;28;20112;-70
2021/01/26 11:25:40;;;;;;;9.75;5.13;;;1.30;91.30;;;;;;5037882;28;20060;-69
2021/01/26 11:28:07;;;;;;;15.93;9.60;;;1.40;91.10;;;;;;5035269;28;20049;-68
2021/01/26 11:30:33;;;;;;;9.43;4.90;;;1.30;90.90;;;;;;5035385;28;20028;-68
2021/01/26 11:33:01;;;;;;;13.82;5.82;;;1.30;91.00;;;;;;5034272;28;20064;-69
2021/01/26 11:35:28;;;;;;;10.23;6.68;;;1.40;91.10;;;;;;5038918;28;20090;-69
2021/01/26 11:37:54;;;;;;;8.32;5.07;;;1.50;90.70;;;;;;5033184;28;20034;-68
2021/01/26 11:40:23;;;;;;;7.53;3.95;;;1.50;89.90;;;;;;5033567;28;20343;-69
2021/01/26 11:42:50;;;;;;;11.68;7.85;;;1.40;90.20;;;;;;5023800;28;20117;-68
2021/01/26 11:45:25;;;;;;;15.95;9.00;;;1.60;90.50;;;;;;5031670;28;20031;-69
2021/01/26 11:47:52;;;;;;;9.45;6.32;;;1.70;89.30;;;;;;5033351;28;20485;-69
2021/01/26 11:50:20;;;;;;;7.75;4.30;;;1.60;88.90;;;;;;5033520;28;20053;-69
2021/01/26 11:52:46;;;;;;;14.63;7.15;;;1.60;89.00;;;;;;5034500;28;20032;-68
2021/01/26 11:55:17;;;;;;;10.38;5.65;;;1.50;89.40;;;;;;5036739;28;20112;-69
2021/01/26 11:57:45;;;;;;;34.55;18.20;;;1.50;89.80;;;;;;5031868;28;20083;-70
2021/01/26 12:00:13;;;;;;;158.82;63.35;;;1.30;89.30;;;;;;5029577;28;20057;-69
2021/01/26 12:02:38;;;;;;;19.58;10.07;;;1.20;89.80;;;;;;5023084;28;20352;-70
2021/01/26 12:05:05;;;;;;;20.42;7.68;;;1.10;90.10;;;;;;5029717;28;20060;-70
2021/01/26 12:07:31;;;;;;;8.98;5.18;;;1.40;90.60;;;;;;5024780;28;20037;-69
2021/01/26 12:09:56;;;;;;;28.00;13.60;;;1.30;89.90;;;;;;5030761;28;20034;-69
2021/01/26 12:12:22;;;;;;;10.73;5.43;;;1.30;90.20;;;;;;5019269;28;20025;-69
2021/01/26 12:14:48;;;;;;;12.23;6.50;;;1.40;90.20;;;;;;5030357;28;20057;-68
2021/01/26 12:17:13;;;;;;;19.92;12.57;;;1.40;89.80;;;;;;5030519;28;20029;-68
2021/01/26 12:19:39;;;;;;;57.72;32.83;;;1.30;90.30;;;;;;5025810;28;20022;-68
2021/01/26 12:22:04;;;;;;;17.33;10.85;;;1.30;90.70;;;;;;5022968;28;20015;-69
2021/01/26 12:24:30;;;;;;;12.27;6.35;;;1.30;90.80;;;;;;5023338;28;20087;-68
2021/01/26 12:26:56;;;;;;;32.88;19.27;;;1.30;90.50;;;;;;5031792;28;20024;-70
2021/01/26 12:29:22;;;;;;;27.85;20.55;;;1.20;90.90;;;;;;5035049;28;20022;-70
2021/01/26 12:31:47;;;;;;;13.05;5.95;;;1.20;91.10;;;;;;5031193;28;20036;-70
2021/01/26 12:34:13;;;;;;;11.88;6.38;;;1.20;91.40;;;;;;5029634;28;20029;-69
2021/01/26 12:36:39;;;;;;;28.88;20.83;;;1.10;90.50;;;;;;5028169;28;20037;-69
2021/01/26 12:39:08;;;;;;;20.73;14.48;;;1.10;91.20;;;;;;5031913;28;20836;-68
2021/01/26 12:41:33;;;;;;;13.68;7.13;;;1.20;91.00;;;;;;5027258;28;20041;-69
2021/01/26 12:43:59;;;;;;;16.77;10.10;;;1.20;91.50;;;;;;5029771;28;20037;-69
2021/01/26 12:46:26;;;;;;;11.07;6.68;;;1.20;91.00;;;;;;5030910;28;20083;-69
2021/01/26 12:48:52;;;;;;;11.60;5.68;;;1.20;90.70;;;;;;5024702;28;20411;-68
2021/01/26 12:51:19;;;;;;;31.15;18.80;;;1.30;90.80;;;;;;5021720;28;20116;-69
2021/01/26 12:53:44;;;;;;;19.77;13.50;;;1.40;90.20;;;;;;5031581;28;20033;-69
2021/01/26 12:56:10;;;;;;;13.55;8.43;;;1.60;90.20;;;;;;5036265;28;20280;-69
2021/01/26 12:58:36;;;;;;;9.75;5.00;;;1.60;89.80;;;;;;5037807;28;20037;-69
2021/01/26 13:01:01;;;;;;;8.70;4.97;;;1.70;89.80;;;;;;5033829;28;20026;-68
2021/01/26 13:03:27;;;;;;;14.85;9.43;;;1.80;89.40;;;;;;5030880;28;20026;-68
2021/01/26 13:05:53;;;;;;;9.98;4.35;;;1.80;89.90;;;;;;5031559;28;20029;-69
2021/01/26 13:08:18;;;;;;;13.43;6.28;;;1.90;89.70;;;;;;5033925;28;20090;-70
2021/01/26 13:10:44;;;;;;;13.38;7.38;;;1.60;89.00;;;;;;5031160;28;20029;-69
2021/01/26 13:13:10;;;;;;;8.63;4.68;;;1.30;89.90;;;;;;5037733;28;20083;-68